Medicine Hat, Canada
Current Conditions -  °F | °C
As of 1:00 PM on Monday 24 Nov 2014 (Local Time) from CYXH Reporting Station
Scattered Clouds Scattered Clouds  
Wind Chill: 35°   Ceiling: Unl
Heat Index: 41°   Visibility: 30mi
Dew Point: 28°   Wind: 10mph
Humidity: 61%   Direction: 240°WSW
Pressure: 30.03"   Gusts: NA
Location:  50.04°N, 110.68°W
Report Text: CYXH 242000Z 24009KT 30SM SCT100 05/M02 A3003 RMK AC3 SLP193
Loading
Personal Weather Stations






























Interactive Weather Map New forecast layout! Learn more

10-Day Weather Forecast

Advertisements
Track Severe Weather on mobile